Time;durP1;ratioP1;P1;durP2;ratioP2;P2;SDS_P1;SDS_P2;PMS_P1;PMS_P2;Temp;Humidity;BMP_temperature;BMP_pressure;BME280_temperature;BME280_humidity;BME280_pressure;Samples;Min_cycle;Max_cycle;Signal;HPM_P1;HPM_P2
2021/12/13 00:02:03;;;;;;;44.92;27.42;;;11.10;99.90;;;;;;5056061;28;20492;-75
2021/12/13 00:04:37;;;;;;;43.33;28.65;;;11.10;99.90;;;;;;4998887;28;20025;-75
2021/12/13 00:07:07;;;;;;;;;;;11.10;99.90;;;;;;5016879;28;20025;-75
2021/12/13 00:09:39;;;;;;;41.28;28.08;;;11.10;99.90;;;;;;5017234;28;19909;-75
2021/12/13 00:12:07;;;;;;;44.22;29.38;;;11.10;99.90;;;;;;5016412;28;20072;-75
2021/12/13 00:14:45;;;;;;;42.72;28.30;;;11.10;99.90;;;;;;5016680;28;20022;-75
2021/12/13 00:17:16;;;;;;;45.10;30.58;;;11.10;99.90;;;;;;4998675;28;20038;-75
2021/12/13 00:19:50;;;;;;;44.47;28.97;;;11.10;99.90;;;;;;5033684;28;20099;-75
2021/12/13 00:22:20;;;;;;;44.67;28.05;;;11.00;99.90;;;;;;5038328;28;20048;-74
2021/12/13 00:24:49;;;;;;;43.35;28.75;;;11.10;99.90;;;;;;5056120;28;20025;-74
2021/12/13 00:27:27;;;;;;;43.58;27.55;;;11.10;99.90;;;;;;5021981;28;20021;-75
2021/12/13 00:29:59;;;;;;;45.43;28.50;;;11.00;99.90;;;;;;4998372;28;20018;-76
2021/12/13 00:32:46;;;;;;;44.23;27.63;;;11.00;99.90;;;;;;5015002;28;20033;-74
2021/12/13 00:35:20;;;;;;;42.08;26.02;;;11.00;99.90;;;;;;4998275;28;20026;-75
2021/12/13 00:37:51;;;;;;;41.13;24.52;;;11.00;99.90;;;;;;5002696;28;20021;-75
2021/12/13 00:40:31;;;;;;;45.13;26.17;;;11.00;99.90;;;;;;5035629;28;20516;-75
2021/12/13 00:43:11;;;;;;;46.00;27.92;;;11.00;99.90;;;;;;5017652;28;20053;-75
2021/12/13 00:45:48;;;;;;;44.83;27.83;;;11.00;99.90;;;;;;5035473;28;20026;-75
2021/12/13 00:48:15;;;;;;;43.53;26.97;;;11.00;99.90;;;;;;5043029;28;20017;-75
2021/12/13 00:50:46;;;;;;;44.67;25.20;;;11.00;99.90;;;;;;5055779;28;20432;-75
2021/12/13 00:53:17;;;;;;;42.53;26.45;;;11.00;99.90;;;;;;5055294;28;20539;-75
2021/12/13 00:55:45;;;;;;;42.57;24.57;;;11.00;99.90;;;;;;5037989;28;20025;-75
2021/12/13 00:58:29;;;;;;;39.47;24.52;;;11.00;99.90;;;;;;5054489;28;20048;-75
2021/12/13 01:01:04;;;;;;;37.80;22.42;;;11.00;99.90;;;;;;5055404;28;20045;-75
2021/12/13 01:03:46;;;;;;;38.67;24.03;;;11.00;99.90;;;;;;5037520;28;20024;-75
2021/12/13 01:06:12;;;;;;;34.13;22.47;;;11.00;99.90;;;;;;5037123;28;20017;-75
2021/12/13 01:09:20;;;;;;;39.70;23.13;;;11.00;99.90;;;;;;5054937;28;20037;-75
2021/12/13 01:11:58;;;;;;;43.20;24.20;;;11.00;99.90;;;;;;5046772;28;20421;-75
2021/12/13 01:14:37;;;;;;;39.90;24.30;;;11.00;99.90;;;;;;5055145;28;20037;-75
2021/12/13 01:17:23;;;;;;;36.10;22.65;;;11.00;99.90;;;;;;5051893;28;20100;-75
2021/12/13 01:19:59;;;;;;;37.47;23.50;;;11.00;99.90;;;;;;5037041;28;20053;-75
2021/12/13 01:25:17;;;;;;;41.58;25.48;;;11.00;99.90;;;;;;5054435;28;20033;-75
2021/12/13 01:27:51;;;;;;;38.75;24.88;;;10.90;99.90;;;;;;5017011;28;20083;-75
2021/12/13 01:30:21;;;;;;;41.60;25.75;;;11.00;99.90;;;;;;5016722;28;20072;-75
2021/12/13 01:32:51;;;;;;;36.00;24.10;;;11.00;99.90;;;;;;5017024;28;20026;-74
2021/12/13 01:35:29;;;;;;;42.43;26.73;;;10.90;99.90;;;;;;5034841;28;20465;-75
2021/12/13 01:38:02;;;;;;;42.37;27.47;;;10.90;99.90;;;;;;5017566;28;20021;-75
2021/12/13 01:40:35;;;;;;;44.88;27.98;;;10.90;99.90;;;;;;5001268;28;20025;-75
2021/12/13 01:43:11;;;;;;;46.20;28.02;;;10.90;99.90;;;;;;5034669;28;20101;-75
2021/12/13 01:45:38;;;;;;;46.57;29.40;;;10.90;99.90;;;;;;5023973;28;20500;-75
2021/12/13 01:48:06;;;;;;;42.43;28.93;;;10.90;99.90;;;;;;5020104;28;20496;-75
2021/12/13 01:50:47;;;;;;;44.85;27.73;;;10.90;99.90;;;;;;5054322;28;20108;-74
2021/12/13 01:53:14;;;;;;;49.03;30.60;;;10.90;99.90;;;;;;5054475;28;20081;-75
2021/12/13 01:55:44;;;;;;;52.30;30.83;;;10.90;99.90;;;;;;5054306;28;20028;-75
2021/12/13 01:58:41;;;;;;;46.67;29.83;;;10.80;99.90;;;;;;5054410;28;20143;-75
2021/12/13 02:01:17;;;;;;;47.90;30.08;;;10.90;99.90;;;;;;5053266;28;20037;-75
2021/12/13 02:03:45;;;;;;;46.60;30.50;;;10.80;99.90;;;;;;5047562;28;20457;-75
2021/12/13 02:06:25;;;;;;;45.70;28.80;;;10.90;99.90;;;;;;5034233;28;20064;-75
2021/12/13 02:08:55;;;;;;;45.13;30.08;;;10.90;99.90;;;;;;5034122;28;20025;-75
2021/12/13 02:11:22;;;;;;;50.17;30.47;;;10.90;99.90;;;;;;5016612;28;20401;-75
2021/12/13 02:14:14;;;;;;;47.60;30.73;;;10.90;99.90;;;;;;5016533;28;20033;-75
2021/12/13 02:17:13;;;;;;;48.83;32.37;;;10.90;99.90;;;;;;5033817;28;20030;-75
2021/12/13 02:19:47;;;;;;;48.95;31.83;;;10.80;99.90;;;;;;5016009;28;20046;-75
2021/12/13 02:22:30;;;;;;;54.35;33.08;;;10.80;99.90;;;;;;5015980;28;20038;-75
2021/12/13 02:24:59;;;;;;;51.75;32.75;;;10.80;99.90;;;;;;5032353;28;20097;-75
2021/12/13 02:27:29;;;;;;;53.42;35.20;;;10.90;99.90;;;;;;5053640;28;20082;-75
2021/12/13 02:30:00;;;;;;;60.05;36.67;;;10.80;99.90;;;;;;5053718;28;20063;-75
2021/12/13 02:32:28;;;;;;;61.03;37.67;;;10.90;99.90;;;;;;5053830;28;20036;-75
2021/12/13 02:34:57;;;;;;;62.23;39.53;;;10.80;99.90;;;;;;5000909;28;20029;-75
2021/12/13 02:37:25;;;;;;;56.13;36.73;;;10.90;99.90;;;;;;5015933;28;20095;-75
2021/12/13 02:39:56;;;;;;;59.50;39.25;;;10.80;99.90;;;;;;5033809;28;20239;-75
2021/12/13 02:42:23;;;;;;;58.43;38.20;;;10.80;99.90;;;;;;5033471;28;20060;-75
2021/12/13 02:44:53;;;;;;;60.80;39.50;;;10.90;99.90;;;;;;5031552;28;20155;-76
2021/12/13 02:47:31;;;;;;;58.50;39.80;;;10.80;99.90;;;;;;5035468;28;20025;-75
2021/12/13 02:49:57;;;;;;;55.05;35.88;;;10.80;99.90;;;;;;5035669;28;20396;-75
2021/12/13 02:52:24;;;;;;;51.20;34.58;;;10.80;99.90;;;;;;5053237;28;20037;-75
2021/12/13 02:54:57;;;;;;;50.95;34.35;;;10.80;99.90;;;;;;5013267;28;20038;-74
2021/12/13 02:57:33;;;;;;;43.93;31.37;;;10.80;99.90;;;;;;5013485;28;20042;-75
2021/12/13 03:00:24;;;;;;;49.57;32.23;;;10.70;99.90;;;;;;5013652;28;20061;-75
2021/12/13 03:02:53;;;;;;;46.17;32.37;;;10.80;99.90;;;;;;5013860;28;20381;-75
2021/12/13 03:05:24;;;;;;;45.77;30.63;;;10.70;99.90;;;;;;5013572;28;20057;-75
2021/12/13 03:07:53;;;;;;;44.80;29.47;;;10.80;99.90;;;;;;5013936;28;20030;-75
2021/12/13 03:10:25;;;;;;;41.88;28.45;;;10.80;99.90;;;;;;5013485;28;20037;-75
2021/12/13 03:12:51;;;;;;;41.17;27.83;;;10.70;99.90;;;;;;4995935;28;20033;-75
2021/12/13 03:15:20;;;;;;;40.45;27.75;;;10.70;99.90;;;;;;4979958;28;20471;-75
2021/12/13 03:17:56;;;;;;;39.97;27.97;;;10.70;99.90;;;;;;5034722;28;20033;-75
2021/12/13 03:20:46;;;;;;;42.67;27.17;;;10.70;99.90;;;;;;5035213;28;20476;-75
2021/12/13 03:23:49;;;;;;;37.28;25.63;;;10.90;99.90;;;;;;5053143;28;20029;-75
2021/12/13 03:26:36;;;;;;;40.87;26.83;;;10.70;99.90;;;;;;5053263;28;20033;-75
2021/12/13 03:29:31;;;;;;;41.03;27.40;;;10.80;99.90;;;;;;5035009;28;20029;-75
2021/12/13 03:31:58;;;;;;;34.73;25.83;;;10.70;99.90;;;;;;5052843;28;20442;-75
2021/12/13 03:35:15;;;;;;;36.08;24.95;;;10.70;99.90;;;;;;5018901;28;20029;-75
2021/12/13 03:37:42;;;;;;;34.35;22.52;;;10.70;99.90;;;;;;4982459;28;20035;-75
2021/12/13 03:40:18;;;;;;;34.77;22.77;;;10.70;99.90;;;;;;5052906;28;20064;-75
2021/12/13 03:42:49;;;;;;;32.28;21.70;;;10.70;99.90;;;;;;5035194;28;20071;-75
2021/12/13 03:45:30;;;;;;;34.65;23.38;;;10.70;99.90;;;;;;5035132;28;20021;-75
2021/12/13 03:47:58;;;;;;;31.53;22.20;;;10.70;99.90;;;;;;5050869;28;20052;-75
2021/12/13 03:50:29;;;;;;;34.60;21.23;;;10.70;99.90;;;;;;5015165;28;20453;-75
2021/12/13 03:52:58;;;;;;;33.28;22.73;;;10.70;99.90;;;;;;5032793;28;20041;-76
2021/12/13 03:55:26;;;;;;;30.43;22.47;;;10.70;99.90;;;;;;5033175;28;20033;-75
2021/12/13 03:57:58;;;;;;;30.48;21.58;;;10.70;99.90;;;;;;5037664;28;20465;-75
2021/12/13 04:00:27;;;;;;;35.85;22.25;;;10.70;99.90;;;;;;5035289;28;20155;-75
2021/12/13 04:02:56;;;;;;;33.20;19.67;;;10.60;99.90;;;;;;5052916;28;20044;-75
2021/12/13 04:05:24;;;;;;;33.83;21.00;;;10.70;99.90;;;;;;5034965;28;20032;-75
2021/12/13 04:07:53;;;;;;;27.93;19.60;;;10.70;99.90;;;;;;5035880;28;20162;-74
2021/12/13 04:10:21;;;;;;;34.53;22.47;;;10.60;99.90;;;;;;5038673;28;20025;-75
2021/12/13 04:12:51;;;;;;;32.33;21.97;;;10.70;99.90;;;;;;5056384;28;20033;-75
2021/12/13 04:15:31;;;;;;;36.43;22.23;;;10.70;99.90;;;;;;5038356;28;20036;-75
2021/12/13 04:18:14;;;;;;;37.30;21.42;;;10.60;99.90;;;;;;5038087;28;20446;-75
2021/12/13 04:20:43;;;;;;;32.47;21.98;;;10.60;99.90;;;;;;5038022;28;20116;-75
2021/12/13 04:23:15;;;;;;;34.63;21.10;;;10.60;99.90;;;;;;5055783;28;20476;-75
2021/12/13 04:25:45;;;;;;;38.70;23.57;;;10.60;99.90;;;;;;5055971;28;20067;-75
2021/12/13 04:28:13;;;;;;;35.00;22.70;;;10.60;99.90;;;;;;5037859;28;20021;-75
2021/12/13 04:30:46;;;;;;;38.67;24.60;;;10.60;99.90;;;;;;5055712;28;20048;-75
2021/12/13 04:33:32;;;;;;;39.53;21.80;;;10.50;99.90;;;;;;5038038;28;20067;-74
2021/12/13 04:36:12;;;;;;;32.50;20.20;;;10.50;99.90;;;;;;5033739;28;20014;-74
2021/12/13 04:38:56;;;;;;;35.90;20.63;;;10.50;99.90;;;;;;5035538;28;20057;-76
2021/12/13 04:41:23;;;;;;;33.47;21.13;;;10.50;99.90;;;;;;5017826;28;20113;-75
2021/12/13 04:44:05;;;;;;;40.67;23.97;;;10.50;99.90;;;;;;5035906;28;20436;-75
2021/12/13 04:46:35;;;;;;;39.90;24.20;;;10.50;99.90;;;;;;5037109;28;20499;-75
2021/12/13 04:49:08;;;;;;;36.35;21.35;;;10.50;99.90;;;;;;5017476;28;20030;-75
2021/12/13 04:51:43;;;;;;;42.63;23.13;;;10.50;99.90;;;;;;5018012;28;20792;-75
2021/12/13 04:54:12;;;;;;;43.13;23.70;;;10.50;99.90;;;;;;5037254;28;20385;-75
2021/12/13 04:56:38;;;;;;;36.97;23.17;;;10.40;99.90;;;;;;5055334;28;20017;-75
2021/12/13 04:59:06;;;;;;;41.53;24.80;;;10.50;99.90;;;;;;5055318;28;20025;-75
2021/12/13 05:01:33;;;;;;;41.20;24.63;;;10.50;99.90;;;;;;5020867;28;20083;-75
2021/12/13 05:04:03;;;;;;;40.93;24.83;;;10.50;99.90;;;;;;5055078;28;20056;-75
2021/12/13 05:06:33;;;;;;;48.53;25.97;;;10.40;99.90;;;;;;4998219;28;20371;-75
2021/12/13 05:09:03;;;;;;;44.40;24.93;;;10.50;99.90;;;;;;5015257;28;20033;-75
2021/12/13 05:11:33;;;;;;;40.80;24.43;;;10.40;99.90;;;;;;5015638;28;20037;-76
2021/12/13 05:14:00;;;;;;;40.33;25.63;;;10.40;99.90;;;;;;4997602;28;20030;-76
2021/12/13 05:16:29;;;;;;;40.53;24.60;;;10.40;99.90;;;;;;4997945;28;20038;-75
2021/12/13 05:18:56;;;;;;;39.87;23.17;;;10.40;99.90;;;;;;4996877;28;20030;-75
2021/12/13 05:21:34;;;;;;;43.43;25.77;;;10.40;99.90;;;;;;4997512;28;20087;-75
2021/12/13 05:24:02;;;;;;;41.73;24.67;;;10.40;99.90;;;;;;5017439;28;20026;-75
2021/12/13 05:26:51;;;;;;;40.27;24.70;;;10.40;99.90;;;;;;5017145;28;20018;-75
2021/12/13 05:29:25;;;;;;;43.43;26.80;;;10.40;99.90;;;;;;5034620;28;20056;-77
2021/12/13 05:32:05;;;;;;;;;;;10.40;99.90;;;;;;5017168;28;20473;-76
2021/12/13 05:34:37;;;;;;;41.00;24.40;;;10.30;99.90;;;;;;5030108;28;19971;-76
2021/12/13 05:37:06;;;;;;;46.20;25.37;;;10.30;99.90;;;;;;5034400;28;20049;-77
2021/12/13 05:39:33;;;;;;;43.53;25.43;;;10.30;99.90;;;;;;5016580;28;20021;-76
2021/12/13 05:42:10;;;;;;;43.17;25.60;;;10.30;99.90;;;;;;5022532;28;20034;-76
2021/12/13 05:44:44;;;;;;;43.43;25.37;;;10.30;99.90;;;;;;5015400;28;20048;-76
2021/12/13 05:47:24;;;;;;;38.33;23.67;;;10.30;99.90;;;;;;5029962;28;20032;-76
2021/12/13 05:49:52;;;;;;;38.50;24.10;;;10.20;99.90;;;;;;5033056;28;20037;-76
2021/12/13 05:52:24;;;;;;;43.50;25.07;;;10.30;99.90;;;;;;4981081;28;20080;-76
2021/12/13 05:55:00;;;;;;;41.87;23.90;;;10.30;99.90;;;;;;5013628;28;20116;-76
2021/12/13 05:57:36;;;;;;;40.23;26.03;;;10.20;99.90;;;;;;5032874;28;20048;-76
2021/12/13 06:00:11;;;;;;;43.60;23.87;;;10.30;99.90;;;;;;5015483;28;20083;-76
2021/12/13 06:03:01;;;;;;;40.50;22.83;;;10.20;99.90;;;;;;5034009;28;20531;-76
2021/12/13 06:05:39;;;;;;;39.50;23.03;;;10.20;99.90;;;;;;5016225;28;20044;-75
2021/12/13 06:08:16;;;;;;;41.27;23.83;;;10.20;99.90;;;;;;4999992;28;20116;-75
2021/12/13 06:10:58;;;;;;;35.13;21.87;;;10.30;99.90;;;;;;5034472;28;20067;-76
2021/12/13 06:13:44;;;;;;;40.00;23.27;;;10.20;99.90;;;;;;5034162;28;20504;-76
2021/12/13 06:16:24;;;;;;;40.37;23.37;;;10.30;99.90;;;;;;5033712;28;20037;-76
2021/12/13 06:18:58;;;;;;;40.50;23.17;;;10.20;99.90;;;;;;5034028;28;20029;-76
2021/12/13 06:21:48;;;;;;;37.63;22.57;;;10.30;99.90;;;;;;5015919;28;20034;-75
2021/12/13 06:24:22;;;;;;;39.87;22.83;;;10.20;99.90;;;;;;5034485;28;20052;-75
2021/12/13 06:26:47;;;;;;;41.80;23.70;;;10.20;99.90;;;;;;5017361;28;20030;-75
2021/12/13 06:29:13;;;;;;;35.53;22.03;;;10.20;99.90;;;;;;5031059;28;20029;-75
2021/12/13 06:31:42;;;;;;;39.23;21.40;;;10.20;99.90;;;;;;5012910;28;20053;-75
2021/12/13 06:34:11;;;;;;;38.77;21.53;;;10.20;99.90;;;;;;5009669;28;20060;-74
2021/12/13 06:36:40;;;;;;;34.50;21.50;;;10.20;99.90;;;;;;5015328;28;20033;-74
2021/12/13 06:39:20;;;;;;;33.37;21.33;;;10.30;99.90;;;;;;5015340;28;20029;-75
2021/12/13 06:41:52;;;;;;;33.67;20.90;;;10.20;99.90;;;;;;5032843;28;20025;-75
2021/12/13 06:44:30;;;;;;;37.43;21.90;;;10.20;99.90;;;;;;5028809;28;20374;-75
2021/12/13 06:46:57;;;;;;;37.23;21.07;;;10.20;99.90;;;;;;5006264;28;20046;-76
2021/12/13 06:49:33;;;;;;;35.63;20.47;;;10.20;99.90;;;;;;5030813;28;20021;-76
2021/12/13 06:52:09;;;;;;;34.73;20.83;;;10.20;99.90;;;;;;5016285;28;20385;-75
2021/12/13 06:54:48;;;;;;;38.83;21.37;;;10.20;99.90;;;;;;5013228;28;20032;-76
2021/12/13 06:57:18;;;;;;;35.10;20.57;;;10.20;99.90;;;;;;5017084;28;20449;-75
2021/12/13 06:59:59;;;;;;;36.53;21.35;;;10.30;99.90;;;;;;5032961;28;20064;-77
2021/12/13 07:02:27;;;;;;;36.23;20.17;;;10.20;99.90;;;;;;5046554;28;20037;-75
2021/12/13 07:05:00;;;;;;;33.83;20.13;;;10.20;99.90;;;;;;5029313;28;20018;-76
2021/12/13 07:07:40;;;;;;;35.70;20.73;;;10.20;99.90;;;;;;5034407;28;20019;-76
2021/12/13 07:10:26;;;;;;;35.83;20.47;;;10.20;99.90;;;;;;5033052;28;20022;-76
2021/12/13 07:12:57;;;;;;;36.13;20.57;;;10.20;99.90;;;;;;5011399;28;20053;-76
2021/12/13 07:15:25;;;;;;;38.00;22.03;;;10.20;99.90;;;;;;5019012;28;20021;-76
2021/12/13 07:18:06;;;;;;;34.07;20.17;;;10.20;99.90;;;;;;5053065;28;20107;-74
2021/12/13 07:20:39;;;;;;;29.80;18.73;;;10.30;99.90;;;;;;5027007;28;20037;-76
2021/12/13 07:23:04;;;;;;;38.00;20.43;;;10.20;99.90;;;;;;5008137;28;20052;-77
2021/12/13 07:25:37;;;;;;;33.70;21.37;;;10.20;99.90;;;;;;5021632;28;20479;-76
2021/12/13 07:28:04;;;;;;;38.27;22.40;;;10.20;99.90;;;;;;5052912;28;20063;-76
2021/12/13 07:30:33;;;;;;;35.90;21.57;;;10.20;99.90;;;;;;5034636;28;20032;-75
2021/12/13 07:33:03;;;;;;;33.87;19.53;;;10.20;99.90;;;;;;5034604;28;20130;-76
2021/12/13 07:35:48;;;;;;;38.07;21.10;;;10.10;99.90;;;;;;5052769;28;20029;-76
2021/12/13 07:38:17;;;;;;;35.77;20.40;;;10.20;99.90;;;;;;5052971;28;20407;-76
2021/12/13 07:41:05;;;;;;;32.97;18.77;;;10.20;99.90;;;;;;5052446;28;20461;-75
2021/12/13 07:43:37;;;;;;;34.47;20.83;;;10.20;99.90;;;;;;5019777;28;20060;-76
2021/12/13 07:46:11;;;;;;;33.37;20.70;;;10.30;99.90;;;;;;5018798;28;20054;-76
2021/12/13 07:48:42;;;;;;;34.90;19.40;;;10.20;99.90;;;;;;5035795;28;20473;-76
2021/12/13 07:51:22;;;;;;;36.67;20.53;;;10.20;99.90;;;;;;5037998;28;20052;-74
2021/12/13 07:54:05;;;;;;;32.77;18.90;;;10.20;99.90;;;;;;5047905;28;20110;-75
2021/12/13 07:56:40;;;;;;;33.53;19.00;;;10.20;99.90;;;;;;5016109;28;20033;-74
2021/12/13 07:59:08;;;;;;;;;;;10.20;99.90;;;;;;5017189;28;20080;-74
2021/12/13 08:01:42;;;;;;;30.80;18.90;;;10.20;99.90;;;;;;5002858;28;20361;-76
2021/12/13 08:04:15;;;;;;;33.10;18.97;;;10.10;99.90;;;;;;5032506;28;20420;-77
2021/12/13 08:06:48;;;;;;;29.57;18.47;;;10.10;99.90;;;;;;5036153;28;20085;-75
2021/12/13 08:09:19;;;;;;;31.50;19.60;;;10.10;99.90;;;;;;5018183;28;20112;-75
2021/12/13 08:11:50;;;;;;;32.73;19.50;;;10.20;99.90;;;;;;5035281;28;20474;-75
2021/12/13 08:14:32;;;;;;;30.23;18.93;;;10.10;99.90;;;;;;5011570;28;20080;-76
2021/12/13 08:17:10;;;;;;;33.27;19.20;;;10.10;99.90;;;;;;5014559;28;20444;-76
2021/12/13 08:19:37;;;;;;;32.27;18.17;;;10.20;99.90;;;;;;5039466;28;20091;-75
2021/12/13 08:22:11;;;;;;;32.90;17.53;;;10.20;99.90;;;;;;5035606;28;20035;-75
2021/12/13 08:24:48;;;;;;;34.50;19.13;;;10.10;99.90;;;;;;5034886;28;20385;-74
2021/12/13 08:27:20;;;;;;;33.87;18.23;;;10.20;99.90;;;;;;5030011;28;20131;-77
2021/12/13 08:29:47;;;;;;;28.37;16.63;;;10.20;99.90;;;;;;5030791;28;20029;-75
2021/12/13 08:32:17;;;;;;;29.07;17.53;;;10.10;99.90;;;;;;5006623;28;20125;-75
2021/12/13 08:34:47;;;;;;;29.80;17.47;;;10.20;99.90;;;;;;5023906;28;20025;-75
2021/12/13 08:37:31;;;;;;;29.97;16.43;;;10.20;99.90;;;;;;5020945;28;20036;-75
2021/12/13 08:40:08;;;;;;;26.57;16.60;;;10.20;99.90;;;;;;5034575;28;20030;-74
2021/12/13 08:42:38;;;;;;;26.13;16.07;;;10.20;99.90;;;;;;5034724;28;20029;-74
2021/12/13 08:45:08;;;;;;;27.47;15.87;;;10.20;99.90;;;;;;5036365;28;20025;-75
2021/12/13 08:47:43;;;;;;;30.37;17.27;;;10.20;99.90;;;;;;5041207;28;20026;-74
2021/12/13 08:50:16;;;;;;;26.67;15.60;;;10.20;99.90;;;;;;5031747;28;20029;-73
2021/12/13 08:52:44;;;;;;;20.57;11.07;;;10.20;99.90;;;;;;5017322;28;20473;-74
2021/12/13 08:55:13;;;;;;;27.60;15.27;;;10.20;99.90;;;;;;5026073;28;20033;-74
2021/12/13 08:58:07;;;;;;;28.30;15.37;;;10.10;99.90;;;;;;5054793;28;20381;-76
2021/12/13 09:00:35;;;;;;;25.95;14.60;;;10.20;99.90;;;;;;5024271;28;20064;-75
2021/12/13 09:03:10;;;;;;;24.27;14.17;;;10.20;99.90;;;;;;5039906;28;20028;-76
2021/12/13 09:06:03;;;;;;;24.20;14.23;;;10.20;99.90;;;;;;5054980;28;20033;-74
2021/12/13 09:08:36;;;;;;;26.93;15.27;;;10.20;99.90;;;;;;5054662;28;20035;-76
2021/12/13 09:11:25;;;;;;;23.83;14.93;;;10.20;99.90;;;;;;5054696;28;20416;-76
2021/12/13 09:14:04;;;;;;;24.80;15.07;;;10.20;99.90;;;;;;5042959;28;20502;-77
2021/12/13 09:17:13;;;;;;;22.63;14.20;;;10.20;99.90;;;;;;5028391;28;20490;-75
2021/12/13 09:20:01;;;;;;;23.43;15.23;;;10.20;99.90;;;;;;5042581;28;20045;-74
2021/12/13 09:22:31;;;;;;;25.37;14.77;;;10.20;99.90;;;;;;5053686;28;20028;-76
2021/12/13 09:25:04;;;;;;;22.90;14.20;;;10.20;99.90;;;;;;5030136;28;20028;-76
2021/12/13 09:27:44;;;;;;;20.70;13.13;;;10.30;99.90;;;;;;5034622;28;20046;-75
2021/12/13 09:30:15;;;;;;;23.63;14.83;;;10.30;99.90;;;;;;5034229;28;20022;-76
2021/12/13 09:32:50;;;;;;;23.13;14.80;;;10.20;99.90;;;;;;5027376;28;20026;-75
2021/12/13 09:35:18;;;;;;;27.73;14.53;;;10.30;99.90;;;;;;4998130;28;20037;-76
2021/12/13 09:37:45;;;;;;;23.03;14.33;;;10.30;99.90;;;;;;4998110;28;20022;-76
2021/12/13 09:40:13;;;;;;;25.13;14.73;;;10.30;99.90;;;;;;5017289;28;20049;-76
2021/12/13 09:42:54;;;;;;;25.43;14.17;;;10.30;99.90;;;;;;5016234;28;20018;-76
2021/12/13 09:45:29;;;;;;;23.47;14.03;;;10.30;99.90;;;;;;5016104;28;20465;-75
2021/12/13 09:47:55;;;;;;;22.90;14.33;;;10.30;99.90;;;;;;5034844;28;20017;-75
2021/12/13 09:50:27;;;;;;;23.97;15.30;;;10.30;99.90;;;;;;5048557;28;20032;-74
2021/12/13 09:53:06;;;;;;;23.30;14.17;;;10.40;99.90;;;;;;5034020;28;20018;-75
2021/12/13 09:55:41;;;;;;;22.00;12.97;;;10.30;99.90;;;;;;5016293;28;20025;-76
2021/12/13 09:58:15;;;;;;;23.53;13.47;;;10.30;99.90;;;;;;5033881;28;20037;-76
2021/12/13 10:00:41;;;;;;;22.88;13.70;;;10.30;99.90;;;;;;5015545;28;20396;-76
2021/12/13 10:03:18;;;;;;;23.50;13.70;;;10.30;99.90;;;;;;5033373;28;20092;-76
2021/12/13 10:05:50;;;;;;;21.17;13.27;;;10.30;99.90;;;;;;5041371;28;20158;-76
2021/12/13 10:08:21;;;;;;;21.60;12.87;;;10.30;99.90;;;;;;5054269;28;20418;-75
2021/12/13 10:10:56;;;;;;;21.83;12.73;;;10.30;99.90;;;;;;5036001;28;20361;-76
2021/12/13 10:13:28;;;;;;;21.27;12.27;;;10.30;99.90;;;;;;5054395;28;20029;-76
2021/12/13 10:15:59;;;;;;;21.43;13.10;;;10.30;99.90;;;;;;5020727;28;20041;-75
2021/12/13 10:18:31;;;;;;;20.10;12.67;;;10.30;99.90;;;;;;5033919;28;20612;-76
2021/12/13 10:21:05;;;;;;;20.70;11.57;;;10.20;99.90;;;;;;5033513;28;20047;-75
2021/12/13 10:23:35;;;;;;;17.57;11.00;;;10.30;99.90;;;;;;5033310;28;20114;-75
2021/12/13 10:26:04;;;;;;;18.17;11.37;;;10.30;99.90;;;;;;5015578;28;20350;-75
2021/12/13 10:28:33;;;;;;;20.17;11.73;;;10.40;99.90;;;;;;5033792;28;20087;-75
2021/12/13 10:31:07;;;;;;;19.20;11.80;;;10.30;99.90;;;;;;5033141;28;20025;-75
2021/12/13 10:33:35;;;;;;;20.83;12.27;;;10.30;99.90;;;;;;5051789;28;20075;-76
2021/12/13 10:36:02;;;;;;;21.07;12.37;;;10.30;99.90;;;;;;5035708;28;20053;-75
2021/12/13 10:38:32;;;;;;;19.80;12.07;;;10.30;99.90;;;;;;5053215;28;20028;-76
2021/12/13 10:41:05;;;;;;;19.17;11.40;;;10.30;99.90;;;;;;5053064;28;20029;-75
2021/12/13 10:43:42;;;;;;;17.63;11.17;;;10.30;99.90;;;;;;5034807;28;20021;-75
2021/12/13 10:46:12;;;;;;;19.77;11.23;;;10.30;99.90;;;;;;5015224;28;20029;-75
2021/12/13 10:48:47;;;;;;;19.60;10.90;;;10.30;99.90;;;;;;5032984;28;20100;-74
2021/12/13 10:51:21;;;;;;;17.27;10.20;;;10.30;99.90;;;;;;5033027;28;20061;-74
2021/12/13 10:53:49;;;;;;;19.17;10.20;;;10.30;99.90;;;;;;5033039;28;20026;-75
2021/12/13 10:56:42;;;;;;;19.67;10.83;;;10.40;99.90;;;;;;5015402;28;20037;-74
2021/12/13 10:59:11;;;;;;;13.77;8.90;;;10.40;99.90;;;;;;5035158;28;20040;-75
2021/12/13 11:01:41;;;;;;;15.57;10.30;;;10.40;99.90;;;;;;5047795;28;20037;-75
2021/12/13 11:04:10;;;;;;;21.83;9.30;;;10.40;99.90;;;;;;5052900;28;20025;-75
2021/12/13 11:06:38;;;;;;;14.83;10.07;;;10.40;99.90;;;;;;4996880;28;20745;-75
2021/12/13 11:09:08;;;;;;;15.48;9.57;;;10.50;99.90;;;;;;5005337;28;20049;-74
2021/12/13 11:11:41;;;;;;;15.80;9.47;;;10.50;99.90;;;;;;5013150;28;20512;-76
2021/12/13 11:14:12;;;;;;;15.13;9.45;;;10.40;99.90;;;;;;5026590;28;20132;-75
2021/12/13 11:16:42;;;;;;;16.80;9.17;;;10.50;99.90;;;;;;5008900;28;20494;-75
2021/12/13 11:19:12;;;;;;;18.27;9.97;;;10.40;99.90;;;;;;5016873;28;20064;-74
2021/12/13 11:21:41;;;;;;;16.23;9.73;;;10.50;99.90;;;;;;5033316;28;20037;-74
2021/12/13 11:24:14;;;;;;;16.80;9.40;;;10.50;99.90;;;;;;5005516;28;20065;-76
2021/12/13 11:26:43;;;;;;;16.23;9.33;;;10.50;99.90;;;;;;5007012;28;20088;-75
2021/12/13 11:29:11;;;;;;;13.93;7.97;;;10.50;99.90;;;;;;5018978;28;20030;-74
2021/12/13 11:32:00;;;;;;;14.77;9.27;;;10.50;99.90;;;;;;5030743;28;20025;-75
2021/12/13 11:34:53;;;;;;;15.03;8.83;;;10.50;99.90;;;;;;5057040;28;20111;-75
2021/12/13 11:37:49;;;;;;;16.53;8.57;;;10.40;99.90;;;;;;5048894;28;20087;-75
2021/12/13 11:40:53;;;;;;;15.37;9.17;;;10.50;99.90;;;;;;5034216;28;20210;-75
2021/12/13 11:43:53;;;;;;;16.92;9.63;;;10.50;99.90;;;;;;5015082;28;20022;-74
2021/12/13 11:47:13;;;;;;;13.63;8.60;;;10.50;99.90;;;;;;5034225;28;20473;-74
2021/12/13 11:50:04;;;;;;;11.90;7.65;;;10.50;99.90;;;;;;4997630;28;20022;-76
2021/12/13 11:53:13;;;;;;;15.63;8.73;;;10.50;99.90;;;;;;5000586;28;20045;-76
2021/12/13 11:55:52;;;;;;;14.83;7.97;;;10.50;99.90;;;;;;5018399;28;20389;-75
2021/12/13 11:58:31;;;;;;;14.63;8.80;;;10.40;99.90;;;;;;5036149;28;20022;-75
2021/12/13 12:01:36;;;;;;;13.43;8.17;;;10.50;99.90;;;;;;5018162;28;20029;-75
2021/12/13 12:04:08;;;;;;;11.63;7.43;;;10.50;99.90;;;;;;5033768;28;20021;-75
2021/12/13 12:07:10;;;;;;;14.17;8.13;;;10.50;99.90;;;;;;5035999;28;20144;-75
2021/12/13 12:10:24;;;;;;;11.93;7.17;;;10.50;99.90;;;;;;5018020;28;20381;-75
2021/12/13 12:13:02;;;;;;;15.50;8.53;;;10.50;99.90;;;;;;5010647;28;20061;-75
2021/12/13 12:15:27;;;;;;;15.27;7.30;;;10.50;99.90;;;;;;5012960;28;20440;-75
2021/12/13 12:17:58;;;;;;;14.07;7.80;;;10.50;99.90;;;;;;5018050;28;20033;-75
2021/12/13 12:20:32;;;;;;;12.73;7.27;;;10.50;99.90;;;;;;5035105;28;20075;-75
2021/12/13 12:23:05;;;;;;;11.82;7.63;;;10.60;99.90;;;;;;5035632;28;20064;-75
2021/12/13 12:25:33;;;;;;;12.17;7.33;;;10.60;99.90;;;;;;5017201;28;20400;-75
2021/12/13 12:28:05;;;;;;;13.03;7.30;;;10.60;99.90;;;;;;5034565;28;20036;-75
2021/12/13 12:30:36;;;;;;;9.93;5.95;;;10.70;99.90;;;;;;5035117;28;20076;-75
2021/12/13 12:33:07;;;;;;;10.97;6.53;;;10.60;99.90;;;;;;5035278;28;20473;-74
2021/12/13 12:35:47;;;;;;;11.10;6.70;;;10.60;99.90;;;;;;5034648;28;20478;-74
2021/12/13 12:38:48;;;;;;;9.83;6.07;;;10.70;99.90;;;;;;5035210;28;20041;-74
2021/12/13 12:41:38;;;;;;;12.43;6.70;;;10.70;99.90;;;;;;5016170;28;20032;-74
2021/12/13 12:44:04;;;;;;;11.87;6.77;;;10.70;99.90;;;;;;5006552;28;20068;-75
2021/12/13 12:46:40;;;;;;;12.73;6.82;;;10.70;99.90;;;;;;5014089;28;20041;-76
2021/12/13 12:49:13;;;;;;;14.93;6.93;;;10.80;99.90;;;;;;5008889;28;20524;-76
2021/12/13 12:51:39;;;;;;;11.98;6.10;;;10.70;99.90;;;;;;5019146;28;20034;-76
2021/12/13 12:54:12;;;;;;;10.27;6.43;;;10.70;99.90;;;;;;5030604;28;20041;-75
2021/12/13 12:56:46;;;;;;;11.52;6.50;;;10.80;99.90;;;;;;5012885;28;20486;-76
2021/12/13 12:59:12;;;;;;;;;;;10.70;99.90;;;;;;5005593;28;20116;-76
2021/12/13 13:01:46;;;;;;;9.57;6.00;;;10.80;99.90;;;;;;5036853;28;20336;-76
2021/12/13 13:04:22;;;;;;;12.50;6.88;;;10.70;99.90;;;;;;5054457;28;20052;-76
2021/12/13 13:06:56;;;;;;;11.23;6.50;;;10.70;99.80;;;;;;5036694;28;20013;-76
2021/12/13 13:09:31;;;;;;;11.90;6.88;;;10.70;99.80;;;;;;5036634;28;20029;-77
2021/12/13 13:11:57;;;;;;;12.50;6.70;;;10.70;99.90;;;;;;5054742;28;20078;-76
2021/12/13 13:14:30;;;;;;;11.17;6.10;;;10.80;99.80;;;;;;5037029;28;20029;-76